Time,TemperatureF,DewpointF,PressureIn,WindDirection,WindDirectionDegrees,WindSpeedMPH,WindSpeedGustMPH,Humidity,HourlyPrecipIn,Conditions,Clouds,dailyrainin,SoftwareType,DateUTC
2013-02-04 00:05:00,21.3,17.0,30.19,SE,143,3.3,3.3,88,0.00,,,0.00,TxWx,2013-02-04 06:05:00,
2013-02-04 00:10:00,21.3,17.0,30.19,SE,129,1.8,2.1,88,0.00,,,0.00,TxWx,2013-02-04 06:10:00,
2013-02-04 00:15:00,21.3,17.0,30.19,SE,145,3.0,3.3,88,0.00,,,0.00,TxWx,2013-02-04 06:15:00,
2013-02-04 00:20:00,21.4,17.0,30.19,SSE,147,3.6,3.6,88,0.00,,,0.00,TxWx,2013-02-04 06:20:00,
2013-02-04 00:25:00,21.3,17.0,30.18,SE,129,1.5,1.8,89,0.00,,,0.00,TxWx,2013-02-04 06:25:00,
2013-02-04 00:31:00,21.4,17.0,30.18,SE,130,0.6,0.6,89,0.00,,,0.00,TxWx,2013-02-04 06:31:00,
2013-02-04 00:36:00,21.3,17.0,30.18,South,169,0.6,0.9,89,0.00,,,0.00,TxWx,2013-02-04 06:36:00,
2013-02-04 00:41:00,21.4,17.0,30.18,SE,138,1.8,2.1,89,0.00,,,0.00,TxWx,2013-02-04 06:41:00,
2013-02-04 00:46:00,21.3,17.0,30.18,SE,133,1.5,1.5,89,0.00,,,0.00,TxWx,2013-02-04 06:46:00,
2013-02-04 00:51:00,21.2,17.0,30.18,ESE,121,2.4,2.4,89,0.00,,,0.00,TxWx,2013-02-04 06:51:00,
2013-02-04 00:56:00,21.2,17.0,30.17,SE,133,2.1,2.4,89,0.00,,,0.00,TxWx,2013-02-04 06:56:00,
2013-02-04 01:02:00,21.2,17.0,30.17,SE,125,3.0,3.0,89,0.00,,,0.00,TxWx,2013-02-04 07:02:00,
2013-02-04 01:07:00,21.2,17.0,30.17,SE,127,1.5,1.5,89,0.00,,,0.00,TxWx,2013-02-04 07:07:00,
2013-02-04 01:12:00,21.2,17.0,30.17,ESE,122,2.7,2.7,89,0.00,,,0.00,TxWx,2013-02-04 07:12:00,
2013-02-04 01:17:00,21.1,17.0,30.17,SE,132,2.7,2.7,89,0.00,,,0.00,TxWx,2013-02-04 07:17:00,
2013-02-04 01:22:00,21.2,17.0,30.17,ESE,119,2.4,2.4,89,0.00,,,0.00,TxWx,2013-02-04 07:22:00,
2013-02-04 01:28:00,21.2,17.0,30.17,ESE,121,2.4,2.4,90,0.00,,,0.00,TxWx,2013-02-04 07:28:00,
2013-02-04 01:33:00,21.2,17.0,30.17,ESE,122,1.5,1.8,90,0.00,,,0.00,TxWx,2013-02-04 07:33:00,
2013-02-04 01:38:00,21.2,17.0,30.17,SE,129,2.7,3.0,90,0.00,,,0.00,TxWx,2013-02-04 07:38:00,
2013-02-04 01:43:00,21.2,18.0,30.17,ESE,117,1.8,1.8,90,0.00,,,0.00,TxWx,2013-02-04 07:43:00,
2013-02-04 01:49:00,21.2,18.0,30.17,ESE,118,3.0,3.0,90,0.00,,,0.00,TxWx,2013-02-04 07:49:00,
2013-02-04 01:54:00,21.3,18.0,30.16,East,101,1.2,1.5,90,0.00,,,0.00,TxWx,2013-02-04 07:54:00,
2013-02-04 01:59:00,21.3,18.0,30.16,ESE,107,0.9,0.9,90,0.00,,,0.00,TxWx,2013-02-04 07:59:00,
2013-02-04 02:04:00,21.3,18.0,30.16,East,86,1.5,1.8,90,0.00,,,0.00,TxWx,2013-02-04 08:04:00,
2013-02-04 02:09:00,21.3,18.0,30.15,East,92,2.7,2.7,91,0.00,,,0.00,TxWx,2013-02-04 08:09:00,
2013-02-04 02:14:00,21.3,18.0,30.14,East,81,3.3,3.3,91,0.00,,,0.00,TxWx,2013-02-04 08:14:00,
2013-02-04 02:19:00,21.3,18.0,30.14,ENE,73,3.0,3.3,91,0.00,,,0.00,TxWx,2013-02-04 08:19:00,
2013-02-04 02:25:00,21.3,18.0,30.13,ENE,74,2.1,2.1,91,0.00,,,0.00,TxWx,2013-02-04 08:25:00,
2013-02-04 02:30:00,21.3,18.0,30.12,ENE,67,2.4,2.7,91,0.00,,,0.00,TxWx,2013-02-04 08:30:00,
2013-02-04 02:35:00,21.3,18.0,30.12,ENE,73,3.6,3.6,91,0.00,,,0.00,TxWx,2013-02-04 08:35:00,
2013-02-04 02:40:00,21.4,18.0,30.12,East,85,2.1,2.1,91,0.00,,,0.00,TxWx,2013-02-04 08:40:00,
2013-02-04 02:45:00,21.4,18.0,30.12,East,95,2.7,2.7,92,0.00,,,0.00,TxWx,2013-02-04 08:45:00,
2013-02-04 02:51:00,21.4,18.0,30.12,ENE,66,3.3,3.6,92,0.00,,,0.00,TxWx,2013-02-04 08:51:00,
2013-02-04 02:56:00,21.4,18.0,30.11,ENE,75,3.6,3.6,92,0.00,,,0.00,TxWx,2013-02-04 08:56:00,
2013-02-04 03:01:00,21.4,18.0,30.12,East,79,2.4,2.4,92,0.00,,,0.00,TxWx,2013-02-04 09:01:00,
2013-02-04 03:06:00,21.4,18.0,30.11,East,89,2.1,2.7,92,0.00,,,0.00,TxWx,2013-02-04 09:06:00,
2013-02-04 03:11:00,21.4,18.0,30.11,East,89,3.0,3.0,92,0.00,,,0.00,TxWx,2013-02-04 09:11:00,
2013-02-04 03:17:00,21.4,18.0,30.11,East,91,4.2,4.5,92,0.00,,,0.00,TxWx,2013-02-04 09:17:00,
2013-02-04 03:22:00,21.4,18.0,30.10,East,91,2.1,2.7,92,0.00,,,0.00,TxWx,2013-02-04 09:22:00,
2013-02-04 03:27:00,21.4,18.0,30.10,East,97,1.5,2.1,92,0.00,,,0.00,TxWx,2013-02-04 09:27:00,
2013-02-04 03:32:00,21.4,18.0,30.10,ESE,104,2.1,2.7,92,0.00,,,0.00,TxWx,2013-02-04 09:32:00,
2013-02-04 03:38:00,21.5,19.0,30.10,ESE,105,2.4,2.7,92,0.00,,,0.00,TxWx,2013-02-04 09:38:00,
2013-02-04 03:43:00,21.5,18.0,30.10,ENE,78,2.7,2.7,92,0.00,,,0.00,TxWx,2013-02-04 09:43:00,
2013-02-04 03:48:00,21.4,18.0,30.10,East,98,5.1,5.1,92,0.00,,,0.00,TxWx,2013-02-04 09:48:00,
2013-02-04 03:53:00,21.4,18.0,30.10,East,92,4.2,5.1,92,0.00,,,0.00,TxWx,2013-02-04 09:53:00,
2013-02-04 03:59:00,21.5,18.0,30.09,East,85,3.9,3.9,92,0.00,,,0.00,TxWx,2013-02-04 09:59:00,
2013-02-04 04:04:00,21.5,19.0,30.09,East,96,2.7,2.7,92,0.00,,,0.00,TxWx,2013-02-04 10:04:00,
2013-02-04 04:09:00,21.5,19.0,30.09,East,94,2.7,3.0,93,0.00,,,0.00,TxWx,2013-02-04 10:09:00,
2013-02-04 04:15:00,21.5,19.0,30.08,East,94,1.5,2.1,93,0.00,,,0.00,TxWx,2013-02-04 10:15:00,
2013-02-04 04:20:00,21.5,19.0,30.09,ESE,119,3.6,3.6,93,0.00,,,0.00,TxWx,2013-02-04 10:20:00,
2013-02-04 04:25:00,21.6,19.0,30.08,ESE,116,5.1,5.1,93,0.00,,,0.00,TxWx,2013-02-04 10:25:00,
2013-02-04 04:30:00,21.6,19.0,30.08,East,97,5.4,5.4,93,0.00,,,0.00,TxWx,2013-02-04 10:30:00,
2013-02-04 04:37:00,21.6,19.0,30.08,East,85,2.7,2.7,93,0.00,,,0.00,TxWx,2013-02-04 10:37:00,
2013-02-04 04:43:00,21.6,19.0,30.08,ESE,104,3.9,3.9,93,0.00,,,0.00,TxWx,2013-02-04 10:43:00,
2013-02-04 04:49:00,21.7,19.0,30.08,ENE,74,3.3,3.9,93,0.00,,,0.00,TxWx,2013-02-04 10:49:00,
2013-02-04 04:54:00,21.7,19.0,30.08,East,97,6.0,6.0,93,0.00,,,0.00,TxWx,2013-02-04 10:54:00,
2013-02-04 05:00:00,21.8,19.0,30.08,East,96,4.8,4.8,93,0.00,,,0.00,TxWx,2013-02-04 11:00:00,
2013-02-04 05:05:00,21.9,19.0,30.07,ENE,78,6.0,6.0,93,0.00,,,0.00,TxWx,2013-02-04 11:05:00,
2013-02-04 05:10:00,21.9,19.0,30.07,East,100,4.2,5.1,93,0.00,,,0.00,TxWx,2013-02-04 11:10:00,
2013-02-04 05:15:00,22.0,19.0,30.07,ENE,71,7.5,8.4,93,0.00,,,0.00,TxWx,2013-02-04 11:15:00,
2013-02-04 05:20:00,22.1,19.0,30.07,ESE,109,2.7,3.0,93,0.00,,,0.00,TxWx,2013-02-04 11:20:00,
2013-02-04 05:26:00,22.1,19.0,30.06,ESE,108,4.8,4.8,93,0.00,,,0.00,TxWx,2013-02-04 11:26:00,
2013-02-04 05:31:00,22.2,19.0,30.06,East,79,3.3,3.3,93,0.00,,,0.00,TxWx,2013-02-04 11:31:00,
2013-02-04 05:36:00,22.3,19.0,30.06,ESE,105,2.7,3.0,93,0.00,,,0.00,TxWx,2013-02-04 11:36:00,
2013-02-04 05:41:00,22.3,19.0,30.05,East,95,8.1,8.1,93,0.00,,,0.00,TxWx,2013-02-04 11:41:00,
2013-02-04 05:46:00,22.3,19.0,30.05,East,79,6.3,7.2,93,0.00,,,0.00,TxWx,2013-02-04 11:46:00,
2013-02-04 05:51:00,22.4,19.0,30.05,East,86,3.6,3.6,93,0.00,,,0.00,TxWx,2013-02-04 11:51:00,
2013-02-04 05:56:00,22.4,19.0,30.05,ENE,72,5.4,6.0,93,0.00,,,0.00,TxWx,2013-02-04 11:56:00,
2013-02-04 06:01:00,22.3,19.0,30.05,East,88,5.1,6.3,93,0.00,,,0.00,TxWx,2013-02-04 12:01:00,
2013-02-04 06:07:00,22.5,19.0,30.05,ENE,76,1.2,1.5,93,0.00,,,0.00,TxWx,2013-02-04 12:07:00,
2013-02-04 06:12:00,22.4,19.0,30.05,East,91,3.9,4.5,93,0.00,,,0.00,TxWx,2013-02-04 12:12:00,
2013-02-04 06:17:00,22.5,19.0,30.05,ENE,64,3.3,4.5,93,0.00,,,0.00,TxWx,2013-02-04 12:17:00,
2013-02-04 06:22:00,22.5,19.0,30.05,ENE,77,3.0,3.3,93,0.00,,,0.00,TxWx,2013-02-04 12:22:00,
2013-02-04 06:27:00,22.5,20.0,30.05,ESE,109,1.8,2.4,93,0.00,,,0.00,TxWx,2013-02-04 12:27:00,
2013-02-04 06:32:00,22.5,19.0,30.05,ENE,76,3.6,4.2,93,0.00,,,0.00,TxWx,2013-02-04 12:32:00,
2013-02-04 06:37:00,22.5,20.0,30.05,East,80,3.6,3.6,93,0.00,,,0.00,TxWx,2013-02-04 12:37:00,
2013-02-04 06:42:00,22.5,20.0,30.05,ENE,61,5.1,5.4,93,0.00,,,0.00,TxWx,2013-02-04 12:42:00,
2013-02-04 06:47:00,22.6,20.0,30.05,ENE,69,2.4,2.4,93,0.00,,,0.00,TxWx,2013-02-04 12:47:00,
2013-02-04 06:52:00,22.6,20.0,30.05,ENE,67,4.8,4.8,93,0.00,,,0.00,TxWx,2013-02-04 12:52:00,
2013-02-04 06:58:00,22.6,20.0,30.05,ENE,65,6.6,6.6,94,0.00,,,0.00,TxWx,2013-02-04 12:58:00,
2013-02-04 07:03:00,22.7,20.0,30.05,East,91,3.9,4.2,94,0.00,,,0.00,TxWx,2013-02-04 13:03:00,
2013-02-04 07:08:00,22.8,20.0,30.04,ENE,71,2.7,2.7,94,0.00,,,0.00,TxWx,2013-02-04 13:08:00,
2013-02-04 07:13:00,22.8,20.0,30.05,East,93,3.6,3.6,94,0.00,,,0.00,TxWx,2013-02-04 13:13:00,
2013-02-04 07:18:00,22.9,20.0,30.04,NNW,336,0.6,0.6,93,0.00,,,0.00,TxWx,2013-02-04 13:18:00,
2013-02-04 07:23:00,22.9,20.0,30.04,ENE,72,3.6,3.6,93,0.00,,,0.00,TxWx,2013-02-04 13:23:00,
2013-02-04 07:28:00,22.9,20.0,30.04,ENE,71,4.2,4.5,93,0.00,,,0.00,TxWx,2013-02-04 13:28:00,
2013-02-04 07:34:00,23.1,20.0,30.03,East,93,4.5,4.5,93,0.00,,,0.00,TxWx,2013-02-04 13:34:00,
2013-02-04 07:39:00,23.1,20.0,30.03,ENE,73,4.2,4.8,93,0.00,,,0.00,TxWx,2013-02-04 13:39:00,
2013-02-04 07:44:00,23.2,20.0,30.04,East,97,1.5,1.8,93,0.00,,,0.00,TxWx,2013-02-04 13:44:00,
2013-02-04 07:50:00,23.1,20.0,30.03,ENE,59,5.1,5.4,93,0.00,,,0.00,TxWx,2013-02-04 13:50:00,
2013-02-04 07:56:00,23.2,20.0,30.03,East,83,2.7,2.7,93,0.00,,,0.00,TxWx,2013-02-04 13:56:00,
2013-02-04 08:01:00,23.2,20.0,30.03,East,85,6.6,6.6,92,0.00,,,0.00,TxWx,2013-02-04 14:01:00,
2013-02-04 08:06:00,23.4,20.0,30.03,North,2,1.2,1.2,92,0.00,,,0.00,TxWx,2013-02-04 14:06:00,
2013-02-04 08:11:00,23.4,20.0,30.03,East,84,4.5,5.1,92,0.00,,,0.00,TxWx,2013-02-04 14:11:00,
2013-02-04 08:16:00,23.3,20.0,30.03,ENE,75,11.7,11.7,92,0.00,,,0.00,TxWx,2013-02-04 14:16:00,
2013-02-04 08:21:00,23.3,20.0,30.03,East,83,8.4,8.4,91,0.00,,,0.00,TxWx,2013-02-04 14:21:00,
2013-02-04 08:27:00,23.3,20.0,30.03,ENE,71,5.4,5.7,91,0.00,,,0.00,TxWx,2013-02-04 14:27:00,
2013-02-04 08:33:00,23.3,20.0,30.03,ENE,77,7.2,7.5,91,0.00,,,0.00,TxWx,2013-02-04 14:33:00,
2013-02-04 08:39:00,23.5,20.0,30.03,East,82,3.3,3.6,91,0.00,,,0.00,TxWx,2013-02-04 14:39:00,
2013-02-04 08:44:00,23.4,20.0,30.03,ENE,63,6.3,6.3,91,0.00,,,0.00,TxWx,2013-02-04 14:44:00,
2013-02-04 08:50:00,23.3,20.0,30.03,ENE,66,3.3,3.6,92,0.00,,,0.00,TxWx,2013-02-04 14:50:00,
2013-02-04 08:55:00,23.4,20.0,30.02,East,89,5.1,6.0,92,0.00,,,0.00,TxWx,2013-02-04 14:55:00,
2013-02-04 09:00:00,23.4,20.0,30.02,ENE,75,7.2,7.2,92,0.00,,,0.00,TxWx,2013-02-04 15:00:00,
2013-02-04 09:05:00,23.6,21.0,30.02,East,81,2.4,2.7,92,0.00,,,0.00,TxWx,2013-02-04 15:05:00,
2013-02-04 09:11:00,23.3,20.0,30.01,ENE,78,7.2,7.8,92,0.00,,,0.00,TxWx,2013-02-04 15:11:00,
2013-02-04 09:16:00,23.5,21.0,30.01,ESE,104,3.3,4.8,92,0.00,,,0.00,TxWx,2013-02-04 15:16:00,
2013-02-04 09:21:00,23.5,21.0,30.01,East,93,6.3,6.6,92,0.00,,,0.00,TxWx,2013-02-04 15:21:00,
2013-02-04 09:26:00,23.7,21.0,30.01,East,95,3.6,4.5,92,0.00,,,0.00,TxWx,2013-02-04 15:26:00,
2013-02-04 09:31:00,23.8,21.0,30.01,East,82,6.3,6.3,92,0.00,,,0.00,TxWx,2013-02-04 15:31:00,
2013-02-04 09:36:00,23.9,21.0,30.02,ENE,76,6.6,7.2,92,0.00,,,0.00,TxWx,2013-02-04 15:36:00,
2013-02-04 09:42:00,23.9,21.0,30.01,ENE,64,6.6,6.6,92,0.00,,,0.00,TxWx,2013-02-04 15:42:00,
2013-02-04 09:47:00,24.3,21.0,30.01,ENE,63,4.8,5.1,92,0.00,,,0.00,TxWx,2013-02-04 15:47:00,
2013-02-04 09:53:00,24.4,21.0,30.01,East,87,3.6,3.9,91,0.00,,,0.00,TxWx,2013-02-04 15:53:00,
2013-02-04 09:59:00,24.6,22.0,30.02,East,81,4.8,5.7,91,0.00,,,0.00,TxWx,2013-02-04 15:59:00,
2013-02-04 10:04:00,24.6,22.0,30.01,East,99,6.0,6.3,91,0.00,,,0.00,TxWx,2013-02-04 16:04:00,
2013-02-04 10:10:00,24.8,21.0,30.02,East,84,6.3,6.3,90,0.00,,,0.00,TxWx,2013-02-04 16:10:00,
2013-02-04 10:15:00,25.1,21.0,30.02,East,84,4.5,4.5,90,0.00,,,0.00,TxWx,2013-02-04 16:15:00,
2013-02-04 10:20:00,25.0,21.0,30.01,East,91,2.7,3.0,89,0.00,,,0.00,TxWx,2013-02-04 16:20:00,
2013-02-04 10:26:00,25.2,21.0,30.02,ENE,70,1.8,2.1,89,0.00,,,0.00,TxWx,2013-02-04 16:26:00,
2013-02-04 10:31:00,25.1,21.0,30.01,East,100,1.2,2.1,89,0.00,,,0.00,TxWx,2013-02-04 16:31:00,
2013-02-04 10:36:00,25.2,21.0,30.01,East,88,2.4,2.4,89,0.00,,,0.00,TxWx,2013-02-04 16:36:00,
2013-02-04 10:41:00,25.3,21.0,30.02,NE,48,2.4,3.0,88,0.00,,,0.00,TxWx,2013-02-04 16:41:00,
2013-02-04 10:47:00,25.1,21.0,30.01,ENE,73,5.7,5.7,88,0.00,,,0.00,TxWx,2013-02-04 16:47:00,
2013-02-04 10:52:00,24.9,21.0,30.01,ENE,64,6.6,6.6,88,0.00,,,0.00,TxWx,2013-02-04 16:52:00,
2013-02-04 10:58:00,25.1,21.0,30.01,East,79,6.0,6.0,88,0.00,,,0.00,TxWx,2013-02-04 16:58:00,
2013-02-04 11:03:00,25.1,21.0,30.01,East,80,4.2,4.5,88,0.00,,,0.00,TxWx,2013-02-04 17:03:00,
2013-02-04 11:08:00,24.9,21.0,30.01,East,87,4.8,4.8,88,0.00,,,0.00,TxWx,2013-02-04 17:08:00,
2013-02-04 11:13:00,25.2,21.0,30.00,East,89,4.5,4.5,88,0.00,,,0.00,TxWx,2013-02-04 17:13:00,
2013-02-04 11:18:00,25.5,21.0,30.00,ENE,72,8.7,9.9,88,0.00,,,0.00,TxWx,2013-02-04 17:18:00,
2013-02-04 11:24:00,25.6,22.0,30.00,ESE,102,6.3,6.3,87,0.00,,,0.00,TxWx,2013-02-04 17:24:00,
2013-02-04 11:30:00,26.0,22.0,29.99,East,96,5.1,5.1,87,0.00,,,0.00,TxWx,2013-02-04 17:30:00,
2013-02-04 11:35:00,25.8,21.0,29.99,East,83,7.2,7.8,86,0.00,,,0.00,TxWx,2013-02-04 17:35:00,
2013-02-04 11:40:00,26.3,21.0,29.99,East,101,4.2,4.2,86,0.00,,,0.00,TxWx,2013-02-04 17:40:00,
2013-02-04 11:45:00,26.9,22.0,29.99,East,96,1.5,2.1,86,0.00,,,0.00,TxWx,2013-02-04 17:45:00,
2013-02-04 11:50:00,27.3,22.0,29.99,ENE,64,0.3,0.6,86,0.00,,,0.00,TxWx,2013-02-04 17:50:00,
2013-02-04 11:56:00,27.3,22.0,29.98,SW,225,3.3,3.6,85,0.00,,,0.00,TxWx,2013-02-04 17:56:00,
2013-02-04 12:01:00,26.7,22.0,29.98,ENE,69,6.0,6.0,83,0.00,,,0.00,TxWx,2013-02-04 18:01:00,
2013-02-04 12:07:00,26.8,22.0,29.99,ENE,63,4.2,4.2,84,0.00,,,0.00,TxWx,2013-02-04 18:07:00,
2013-02-04 12:12:00,26.9,22.0,29.99,SSW,205,3.0,3.0,83,0.00,,,0.00,TxWx,2013-02-04 18:12:00,
2013-02-04 12:18:00,27.1,22.0,29.99,NE,49,3.6,3.9,83,0.00,,,0.00,TxWx,2013-02-04 18:18:00,
2013-02-04 12:23:00,27.2,22.0,29.99,SSW,199,2.7,3.3,83,0.00,,,0.00,TxWx,2013-02-04 18:23:00,
2013-02-04 12:29:00,27.1,21.0,29.99,ENE,70,5.4,5.7,83,0.00,,,0.00,TxWx,2013-02-04 18:29:00,
2013-02-04 12:34:00,27.3,21.0,29.99,SSW,203,1.8,2.1,83,0.00,,,0.00,TxWx,2013-02-04 18:34:00,
2013-02-04 12:39:00,27.4,21.0,29.99,West,269,4.2,5.1,82,0.00,,,0.00,TxWx,2013-02-04 18:39:00,
2013-02-04 12:44:00,27.3,21.0,29.99,NNE,21,2.4,2.7,82,0.00,,,0.00,TxWx,2013-02-04 18:44:00,
2013-02-04 12:50:00,27.5,21.0,29.99,SW,226,3.9,3.9,82,0.00,,,0.00,TxWx,2013-02-04 18:50:00,
2013-02-04 12:55:00,27.3,21.0,29.99,SW,229,6.6,6.6,81,0.00,,,0.00,TxWx,2013-02-04 18:55:00,
2013-02-04 13:02:00,27.3,21.0,29.99,SSW,210,5.1,5.4,81,0.00,,,0.00,TxWx,2013-02-04 19:02:00,
2013-02-04 13:08:00,27.6,22.0,29.99,SW,216,5.7,6.0,82,0.00,,,0.00,TxWx,2013-02-04 19:08:00,
2013-02-04 13:13:00,27.5,21.0,29.99,SSW,207,5.7,5.7,80,0.00,,,0.00,TxWx,2013-02-04 19:13:00,
2013-02-04 13:18:00,27.5,21.0,29.98,SSW,211,5.1,5.4,81,0.00,,,0.00,TxWx,2013-02-04 19:18:00,
2013-02-04 13:24:00,27.6,22.0,29.98,SW,214,3.9,4.5,80,0.00,,,0.00,TxWx,2013-02-04 19:24:00,
2013-02-04 13:29:00,27.4,20.0,29.99,SW,219,7.8,7.8,79,0.00,,,0.00,TxWx,2013-02-04 19:29:00,
2013-02-04 13:34:00,27.7,22.0,29.99,SW,223,3.0,3.0,80,0.00,,,0.00,TxWx,2013-02-04 19:34:00,
2013-02-04 13:39:00,27.9,22.0,29.99,East,91,3.0,3.0,80,0.00,,,0.00,TxWx,2013-02-04 19:39:00,
2013-02-04 13:45:00,27.9,21.0,29.99,SSW,193,3.3,4.2,79,0.00,,,0.00,TxWx,2013-02-04 19:45:00,
2013-02-04 13:50:00,27.4,20.0,29.99,SSW,200,5.1,5.1,79,0.00,,,0.00,TxWx,2013-02-04 19:50:00,
2013-02-04 13:55:00,27.3,21.0,29.99,SSW,213,2.7,3.0,80,0.00,,,0.00,TxWx,2013-02-04 19:55:00,
2013-02-04 14:00:00,27.4,21.0,30.00,SSW,204,3.6,3.6,80,0.00,,,0.00,TxWx,2013-02-04 20:00:00,
2013-02-04 14:06:00,27.6,22.0,30.00,SSW,196,3.0,3.0,80,0.00,,,0.00,TxWx,2013-02-04 20:06:00,
2013-02-04 14:11:00,27.6,21.0,30.00,South,191,3.6,3.6,80,0.00,,,0.00,TxWx,2013-02-04 20:11:00,
2013-02-04 14:16:00,27.5,20.0,30.00,SSW,199,3.9,3.9,79,0.00,,,0.00,TxWx,2013-02-04 20:16:00,
2013-02-04 14:21:00,27.6,22.0,30.00,SSW,203,3.3,3.6,80,0.00,,,0.00,TxWx,2013-02-04 20:21:00,
2013-02-04 14:26:00,27.6,21.0,30.00,SSW,199,3.9,3.9,79,0.00,,,0.00,TxWx,2013-02-04 20:26:00,
2013-02-04 14:31:00,27.6,21.0,30.01,SSW,203,3.0,3.0,80,0.00,,,0.00,TxWx,2013-02-04 20:31:00,
2013-02-04 14:36:00,27.7,21.0,30.01,SSW,199,4.5,4.5,79,0.00,,,0.00,TxWx,2013-02-04 20:36:00,
2013-02-04 14:41:00,27.6,21.0,30.01,SSW,207,3.9,3.9,79,0.00,,,0.00,TxWx,2013-02-04 20:41:00,
2013-02-04 14:47:00,27.7,21.0,30.01,SSW,207,5.4,5.4,79,0.00,,,0.00,TxWx,2013-02-04 20:47:00,
2013-02-04 14:52:00,27.6,21.0,30.01,SSW,206,5.7,5.7,79,0.00,,,0.00,TxWx,2013-02-04 20:52:00,
2013-02-04 14:57:00,27.5,21.0,30.00,SSW,206,4.8,4.8,79,0.00,,,0.00,TxWx,2013-02-04 20:57:00,
2013-02-04 15:03:00,27.7,21.0,30.01,SW,216,4.5,5.1,80,0.00,,,0.00,TxWx,2013-02-04 21:03:00,
2013-02-04 15:08:00,27.8,21.0,30.00,SW,220,3.6,3.9,79,0.00,,,0.00,TxWx,2013-02-04 21:08:00,
2013-02-04 15:13:00,27.9,21.0,30.01,SSW,204,3.9,3.9,79,0.00,,,0.00,TxWx,2013-02-04 21:13:00,
2013-02-04 15:18:00,27.8,21.0,30.01,SSW,211,6.0,6.3,80,0.00,,,0.00,TxWx,2013-02-04 21:18:00,
2013-02-04 15:23:00,27.8,21.0,30.01,SSW,203,4.2,4.2,80,0.00,,,0.00,TxWx,2013-02-04 21:23:00,
2013-02-04 15:28:00,27.9,22.0,30.00,SW,223,4.2,4.2,80,0.00,,,0.00,TxWx,2013-02-04 21:28:00,
2013-02-04 15:34:00,28.0,21.0,30.00,SSW,199,3.6,3.9,80,0.00,,,0.00,TxWx,2013-02-04 21:34:00,
2013-02-04 15:39:00,28.0,21.0,30.00,SSW,199,4.2,4.2,79,0.00,,,0.00,TxWx,2013-02-04 21:39:00,
2013-02-04 15:44:00,27.6,21.0,30.00,SSW,203,6.6,6.6,78,0.00,,,0.00,TxWx,2013-02-04 21:44:00,
2013-02-04 15:49:00,27.5,21.0,29.98,SSW,212,5.4,8.4,80,0.00,,,0.00,TxWx,2013-02-04 21:49:00,
2013-02-04 15:55:00,27.4,20.0,29.99,SSW,207,7.8,7.8,79,0.00,,,0.00,TxWx,2013-02-04 21:55:00,
2013-02-04 16:00:00,27.2,21.0,29.99,SSW,206,5.1,5.1,80,0.00,,,0.00,TxWx,2013-02-04 22:00:00,
2013-02-04 16:05:00,27.2,21.0,29.99,SSW,209,5.7,6.6,81,0.00,,,0.00,TxWx,2013-02-04 22:05:00,
2013-02-04 16:10:00,27.2,21.0,29.99,SSW,206,4.2,4.2,82,0.00,,,0.00,TxWx,2013-02-04 22:10:00,
2013-02-04 16:15:00,27.2,21.0,29.99,SSW,198,3.6,3.9,82,0.00,,,0.00,TxWx,2013-02-04 22:15:00,
2013-02-04 16:20:00,27.1,21.0,29.99,SSW,207,3.9,4.8,83,0.00,,,0.00,TxWx,2013-02-04 22:20:00,
2013-02-04 16:26:00,27.1,22.0,29.99,SSW,203,6.0,6.0,83,0.00,,,0.00,TxWx,2013-02-04 22:26:00,
2013-02-04 16:31:00,27.1,22.0,29.99,SSW,206,4.8,5.4,83,0.00,,,0.00,TxWx,2013-02-04 22:31:00,
2013-02-04 16:36:00,27.0,22.0,29.99,SSW,203,3.6,3.6,84,0.00,,,0.00,TxWx,2013-02-04 22:36:00,
2013-02-04 16:41:00,27.0,22.0,30.00,South,189,3.0,3.6,84,0.00,,,0.00,TxWx,2013-02-04 22:41:00,
2013-02-04 16:46:00,27.0,22.0,30.00,SSW,204,5.4,5.4,84,0.00,,,0.00,TxWx,2013-02-04 22:46:00,
2013-02-04 16:51:00,26.9,22.0,30.00,SSW,203,3.3,3.6,85,0.00,,,0.00,TxWx,2013-02-04 22:51:00,
2013-02-04 16:56:00,26.8,22.0,30.01,SSW,199,3.3,3.9,85,0.00,,,0.00,TxWx,2013-02-04 22:56:00,
2013-02-04 17:02:00,26.8,22.0,30.00,SSW,206,5.1,5.1,85,0.00,,,0.00,TxWx,2013-02-04 23:02:00,
2013-02-04 17:07:00,26.8,22.0,30.01,SSW,200,4.2,4.8,85,0.00,,,0.00,TxWx,2013-02-04 23:07:00,
2013-02-04 17:12:00,26.8,22.0,30.02,SSW,207,4.8,5.1,86,0.00,,,0.00,TxWx,2013-02-04 23:12:00,
2013-02-04 17:17:00,26.7,22.0,30.02,South,188,4.5,4.8,86,0.00,,,0.00,TxWx,2013-02-04 23:17:00,
2013-02-04 17:22:00,26.7,22.0,30.02,SSW,201,3.9,3.9,86,0.00,,,0.00,TxWx,2013-02-04 23:22:00,
2013-02-04 17:28:00,26.7,22.0,30.03,SSW,198,5.4,6.3,86,0.00,,,0.00,TxWx,2013-02-04 23:28:00,
2013-02-04 17:33:00,26.8,22.0,30.03,SSW,195,3.3,3.3,86,0.00,,,0.00,TxWx,2013-02-04 23:33:00,
2013-02-04 17:38:00,26.8,22.0,30.03,SSW,196,4.8,4.8,86,0.00,,,0.00,TxWx,2013-02-04 23:38:00,
2013-02-04 17:44:00,26.7,22.0,30.04,SSW,197,3.0,3.0,86,0.00,,,0.00,TxWx,2013-02-04 23:44:00,
2013-02-04 17:49:00,26.6,23.0,30.04,SSW,205,3.9,3.9,87,0.00,,,0.00,TxWx,2013-02-04 23:49:00,
2013-02-04 17:54:00,26.7,23.0,30.04,SSW,194,2.4,2.4,87,0.00,,,0.00,TxWx,2013-02-04 23:54:00,
2013-02-04 17:59:00,26.7,23.0,30.04,SSW,195,2.7,2.7,87,0.00,,,0.00,TxWx,2013-02-04 23:59:00,
2013-02-04 18:04:00,26.6,23.0,30.05,South,189,3.9,4.5,88,0.00,,,0.00,TxWx,2013-02-05 00:04:00,
2013-02-04 18:10:00,26.6,23.0,30.05,SSW,196,2.7,2.7,88,0.00,,,0.00,TxWx,2013-02-05 00:10:00,
2013-02-04 18:15:00,26.5,23.0,30.05,SSW,201,2.4,2.4,88,0.00,,,0.00,TxWx,2013-02-05 00:15:00,
2013-02-04 18:20:00,26.5,22.0,30.05,SSW,198,2.7,2.7,88,0.00,,,0.00,TxWx,2013-02-05 00:20:00,
2013-02-04 18:25:00,26.5,22.0,30.05,SSW,201,1.2,1.5,88,0.00,,,0.00,TxWx,2013-02-05 00:25:00,
2013-02-04 18:30:00,26.4,22.0,30.05,South,185,3.0,3.0,88,0.00,,,0.00,TxWx,2013-02-05 00:30:00,
2013-02-04 18:36:00,26.4,22.0,30.06,South,186,3.6,3.6,89,0.00,,,0.00,TxWx,2013-02-05 00:36:00,
2013-02-04 18:41:00,26.6,23.0,30.06,SSW,193,3.0,3.0,89,0.00,,,0.00,TxWx,2013-02-05 00:41:00,
2013-02-04 18:46:00,26.5,23.0,30.07,South,186,3.3,3.3,89,0.00,,,0.00,TxWx,2013-02-05 00:46:00,
2013-02-04 18:51:00,26.7,23.0,30.07,South,182,3.0,3.3,88,0.00,,,0.00,TxWx,2013-02-05 00:51:00,
2013-02-04 18:56:00,26.7,23.0,30.07,SSW,200,1.5,1.5,88,0.00,,,0.00,TxWx,2013-02-05 00:56:00,
2013-02-04 19:01:00,26.7,23.0,30.06,South,186,1.8,1.8,88,0.00,,,0.00,TxWx,2013-02-05 01:01:00,
2013-02-04 19:06:00,26.7,23.0,30.07,South,176,1.8,2.1,88,0.00,,,0.00,TxWx,2013-02-05 01:06:00,
2013-02-04 19:12:00,26.7,23.0,30.07,South,180,1.5,1.5,88,0.00,,,0.00,TxWx,2013-02-05 01:12:00,
2013-02-04 19:17:00,26.8,23.0,30.07,South,178,2.1,2.1,88,0.00,,,0.00,TxWx,2013-02-05 01:17:00,
2013-02-04 19:22:00,26.9,23.0,30.07,South,177,0.9,1.2,88,0.00,,,0.00,TxWx,2013-02-05 01:22:00,
2013-02-04 19:27:00,26.8,23.0,30.07,South,181,1.8,2.1,88,0.00,,,0.00,TxWx,2013-02-05 01:27:00,
2013-02-04 19:32:00,26.8,23.0,30.07,South,173,2.1,2.4,88,0.00,,,0.00,TxWx,2013-02-05 01:32:00,
2013-02-04 19:38:00,26.8,23.0,30.07,SSW,192,0.6,0.6,88,0.00,,,0.00,TxWx,2013-02-05 01:38:00,
2013-02-04 19:43:00,26.9,23.0,30.06,SSW,193,0.3,0.3,88,0.00,,,0.00,TxWx,2013-02-05 01:43:00,
2013-02-04 19:48:00,26.9,23.0,30.06,South,177,0.6,0.6,88,0.00,,,0.00,TxWx,2013-02-05 01:48:00,
2013-02-04 19:53:00,26.8,23.0,30.06,South,176,0.9,0.9,88,0.00,,,0.00,TxWx,2013-02-05 01:53:00,
2013-02-04 19:58:00,26.9,23.0,30.07,East,101,0.0,0.0,88,0.00,,,0.00,TxWx,2013-02-05 01:58:00,
2013-02-04 20:03:00,26.9,23.0,30.06,ESE,109,0.3,0.6,88,0.00,,,0.00,TxWx,2013-02-05 02:03:00,
2013-02-04 20:08:00,26.8,23.0,30.06,South,169,1.2,1.5,88,0.00,,,0.00,TxWx,2013-02-05 02:08:00,
2013-02-04 20:14:00,26.8,23.0,30.06,South,186,1.2,1.2,88,0.00,,,0.00,TxWx,2013-02-05 02:14:00,
2013-02-04 20:19:00,26.8,23.0,30.07,SSE,168,0.9,0.9,88,0.00,,,0.00,TxWx,2013-02-05 02:19:00,
2013-02-04 20:24:00,26.8,23.0,30.07,South,171,0.6,0.9,88,0.00,,,0.00,TxWx,2013-02-05 02:24:00,
2013-02-04 20:29:00,26.9,23.0,30.07,South,173,0.9,1.2,88,0.00,,,0.00,TxWx,2013-02-05 02:29:00,
2013-02-04 20:34:00,26.8,23.0,30.07,South,183,0.9,1.2,88,0.00,,,0.00,TxWx,2013-02-05 02:34:00,
2013-02-04 20:39:00,26.8,23.0,30.07,South,173,2.7,2.7,88,0.00,,,0.00,TxWx,2013-02-05 02:39:00,
2013-02-04 20:44:00,26.8,23.0,30.07,SSE,168,2.4,2.7,88,0.00,,,0.00,TxWx,2013-02-05 02:44:00,
2013-02-04 20:49:00,26.7,23.0,30.08,SSE,168,1.5,1.5,88,0.00,,,0.00,TxWx,2013-02-05 02:49:00,
2013-02-04 20:54:00,26.7,23.0,30.08,South,171,3.0,3.0,88,0.00,,,0.00,TxWx,2013-02-05 02:54:00,
2013-02-04 21:00:00,26.8,23.0,30.09,SSE,167,3.6,5.4,88,0.00,,,0.00,TxWx,2013-02-05 03:00:00,
2013-02-04 21:05:00,26.7,23.0,30.09,SSE,167,3.6,3.9,88,0.00,,,0.00,TxWx,2013-02-05 03:05:00,
2013-02-04 21:10:00,26.7,23.0,30.09,South,169,3.3,3.3,88,0.00,,,0.00,TxWx,2013-02-05 03:10:00,
2013-02-04 21:15:00,26.5,23.0,30.09,South,169,4.5,4.5,89,0.00,,,0.00,TxWx,2013-02-05 03:15:00,
2013-02-04 21:21:00,26.6,23.0,30.08,South,179,4.2,4.2,89,0.00,,,0.00,TxWx,2013-02-05 03:21:00,
2013-02-04 21:26:00,26.8,23.0,30.08,South,181,3.0,3.3,89,0.00,,,0.00,TxWx,2013-02-05 03:26:00,
2013-02-04 21:31:00,26.8,23.0,30.08,South,187,4.8,4.8,90,0.00,,,0.00,TxWx,2013-02-05 03:31:00,
2013-02-04 21:36:00,26.8,23.0,30.08,South,190,4.2,4.2,90,0.00,,,0.00,TxWx,2013-02-05 03:36:00,
2013-02-04 21:41:00,26.8,23.0,30.08,SSW,195,3.0,3.3,90,0.00,,,0.00,TxWx,2013-02-05 03:41:00,
2013-02-04 21:46:00,26.9,23.0,30.08,SSW,206,1.8,1.8,90,0.00,,,0.00,TxWx,2013-02-05 03:46:00,
2013-02-04 21:51:00,26.8,23.0,30.07,SSW,204,1.8,2.1,89,0.00,,,0.00,TxWx,2013-02-05 03:51:00,
2013-02-04 21:57:00,26.8,23.0,30.07,SSW,208,0.9,0.9,89,0.00,,,0.00,TxWx,2013-02-05 03:57:00,
2013-02-04 22:02:00,26.7,23.0,30.07,SSW,196,1.2,1.2,89,0.00,,,0.00,TxWx,2013-02-05 04:02:00,
2013-02-04 22:07:00,26.7,23.0,30.07,SSW,192,1.8,1.8,89,0.00,,,0.00,TxWx,2013-02-05 04:07:00,
2013-02-04 22:12:00,26.7,23.0,30.06,SSW,200,1.2,1.2,90,0.00,,,0.00,TxWx,2013-02-05 04:12:00,
2013-02-04 22:17:00,26.6,23.0,30.06,SSW,212,2.4,2.4,90,0.00,,,0.00,TxWx,2013-02-05 04:17:00,
2013-02-04 22:22:00,26.6,23.0,30.06,SSW,206,2.1,2.1,90,0.00,,,0.00,TxWx,2013-02-05 04:22:00,
2013-02-04 22:27:00,26.8,23.0,30.06,SSW,202,5.4,5.7,90,0.00,,,0.00,TxWx,2013-02-05 04:27:00,
2013-02-04 22:32:00,26.9,23.0,30.07,SSW,197,6.9,6.9,90,0.00,,,0.00,TxWx,2013-02-05 04:32:00,
2013-02-04 22:37:00,26.6,24.0,30.07,South,190,7.2,7.5,91,0.00,,,0.00,TxWx,2013-02-05 04:37:00,
2013-02-04 22:42:00,26.3,23.0,30.07,South,190,6.9,7.2,91,0.00,,,0.00,TxWx,2013-02-05 04:42:00,
2013-02-04 22:48:00,25.9,23.0,30.08,South,188,7.5,7.5,92,0.00,,,0.00,TxWx,2013-02-05 04:48:00,
2013-02-04 22:53:00,25.8,23.0,30.08,South,188,9.0,9.3,92,0.00,,,0.00,TxWx,2013-02-05 04:53:00,
2013-02-04 22:58:00,25.7,23.0,30.08,South,189,11.7,12.0,93,0.00,,,0.00,TxWx,2013-02-05 04:58:00,
2013-02-04 23:00:00,25.7,23.0,30.08,SSW,202,7.2,9.6,93,0.00,,,0.00,TxWx,2013-02-05 05:00:00,
2013-02-04 23:02:00,25.7,23.0,30.07,South,190,11.1,12.0,93,0.00,,,0.00,TxWx,2013-02-05 05:02:00,
2013-02-04 23:07:00,25.7,23.0,30.07,SSW,194,9.3,10.5,93,0.00,,,0.00,TxWx,2013-02-05 05:07:00,
2013-02-04 23:12:00,25.8,23.0,30.07,SSW,192,6.9,7.8,92,0.00,,,0.00,TxWx,2013-02-05 05:12:00,
2013-02-04 23:17:00,25.7,23.0,30.08,SSW,195,9.3,9.9,92,0.00,,,0.00,TxWx,2013-02-05 05:17:00,
2013-02-04 23:22:00,25.7,23.0,30.08,SSW,193,9.6,9.6,92,0.00,,,0.00,TxWx,2013-02-05 05:22:00,
2013-02-04 23:27:00,25.6,23.0,30.08,SSW,195,11.4,11.4,91,0.00,,,0.00,TxWx,2013-02-05 05:27:00,
2013-02-04 23:32:00,25.3,22.0,30.08,South,189,14.7,14.7,91,0.00,,,0.00,TxWx,2013-02-05 05:32:00,
2013-02-04 23:38:00,25.2,22.0,30.08,SSW,198,7.8,8.4,91,0.00,,,0.00,TxWx,2013-02-05 05:38:00,
2013-02-04 23:43:00,25.0,22.0,30.09,South,189,9.3,9.6,91,0.00,,,0.00,TxWx,2013-02-05 05:43:00,
2013-02-04 23:48:00,24.8,22.0,30.09,South,186,11.4,12.6,91,0.00,,,0.00,TxWx,2013-02-05 05:48:00,
2013-02-04 23:53:00,24.6,21.0,30.09,South,190,8.4,8.4,90,0.00,,,0.00,TxWx,2013-02-05 05:53:00,
2013-02-04 23:58:00,24.4,20.0,30.09,South,188,11.7,11.7,90,0.00,,,0.00,TxWx,2013-02-05 05:58:00,